Time;durP1;ratioP1;P1;durP2;ratioP2;P2;SDS_P1;SDS_P2;PMS_P1;PMS_P2;Temp;Humidity;BMP_temperature;BMP_pressure;BME280_temperature;BME280_humidity;BME280_pressure;Samples;Min_cycle;Max_cycle;Signal;HPM_P1;HPM_P2
2023/05/31 00:02:17;;;;;;;19.48;11.77;;;;;;;;;;5092242;28;20028;-58
2023/05/31 00:04:43;;;;;;;21.63;10.70;;;;;;;;;;5090084;28;20123;-58
2023/05/31 00:07:09;;;;;;;20.27;11.27;;;;;;;;;;5091084;28;20031;-60
2023/05/31 00:09:35;;;;;;;19.88;10.85;;;;;;;;;;5092184;28;20028;-58
2023/05/31 00:12:01;;;;;;;19.88;11.10;;;;;;;;;;5092191;28;20063;-60
2023/05/31 00:14:27;;;;;;;19.80;11.40;;;;;;;;;;5091464;28;20027;-61
2023/05/31 00:16:53;;;;;;;18.92;11.52;;;;;;;;;;5092241;28;20093;-59
2023/05/31 00:19:19;;;;;;;22.00;11.48;;;;;;;;;;5090982;28;20028;-59
2023/05/31 00:21:46;;;;;;;17.63;10.82;;;;;;;;;;5091408;28;20024;-61
2023/05/31 00:24:12;;;;;;;19.15;11.43;;;;;;;;;;5090232;28;20028;-58
2023/05/31 00:26:38;;;;;;;20.23;11.02;;;;;;;;;;5092147;28;20023;-59
2023/05/31 00:29:04;;;;;;;20.55;11.43;;;;;;;;;;5090734;28;20097;-58
2023/05/31 00:31:31;;;;;;;20.50;11.85;;;;;;;;;;5092124;28;20107;-60
2023/05/31 00:33:57;;;;;;;19.67;11.10;;;;;;;;;;5091442;28;20034;-58
2023/05/31 00:36:23;;;;;;;21.02;11.60;;;;;;;;;;5064710;22;20493;-62
2023/05/31 00:38:49;;;;;;;20.38;12.13;;;;;;;;;;5050121;28;20025;-61
2023/05/31 00:41:15;;;;;;;20.65;11.32;;;;;;;;;;5050247;28;20366;-62
2023/05/31 00:43:41;;;;;;;20.85;11.38;;;;;;;;;;5050216;28;20492;-62
2023/05/31 00:46:10;;;;;;;19.38;11.85;;;;;;;;;;5049459;28;20057;-61
2023/05/31 00:48:38;;;;;;;20.73;11.40;;;;;;;;;;5050370;28;20104;-62
2023/05/31 00:51:05;;;;;;;20.17;11.57;;;;;;;;;;5050414;28;20020;-64
2023/05/31 00:53:31;;;;;;;20.52;11.60;;;;;;;;;;5050165;28;20104;-63
2023/05/31 00:55:59;;;;;;;21.35;12.50;;;;;;;;;;5049272;28;20092;-62
2023/05/31 00:58:27;;;;;;;21.10;11.38;;;;;;;;;;5050193;28;20025;-63
2023/05/31 01:00:53;;;;;;;21.23;12.05;;;;;;;;;;5049974;28;20029;-62
2023/05/31 01:03:20;;;;;;;22.88;12.88;;;;;;;;;;5050109;28;20037;-63
2023/05/31 01:05:46;;;;;;;21.08;11.30;;;;;;;;;;5049210;28;20464;-60
2023/05/31 01:08:14;;;;;;;22.85;12.35;;;;;;;;;;5032089;28;20029;-62
2023/05/31 01:10:40;;;;;;;25.50;12.45;;;;;;;;;;5049912;28;20021;-62
2023/05/31 01:13:10;;;;;;;20.60;11.88;;;;;;;;;;5050174;28;20051;-63
2023/05/31 01:15:44;;;;;;;21.52;12.35;;;;;;;;;;5048983;28;20397;-62
2023/05/31 01:18:10;;;;;;;22.60;12.25;;;;;;;;;;5049956;28;20069;-63
2023/05/31 01:20:38;;;;;;;24.00;13.13;;;;;;;;;;5032144;28;20595;-63
2023/05/31 01:23:19;;;;;;;24.25;13.25;;;;;;;;;;5049771;28;20032;-60
2023/05/31 01:25:45;;;;;;;25.30;13.07;;;;;;;;;;5052739;28;20056;-61
2023/05/31 01:28:12;;;;;;;22.30;13.63;;;;;;;;;;5061269;28;20107;-61
2023/05/31 01:30:38;;;;;;;23.73;12.82;;;;;;;;;;5061601;28;20021;-61
2023/05/31 01:33:06;;;;;;;22.63;11.88;;;;;;;;;;5052551;28;20133;-63
2023/05/31 01:35:32;;;;;;;21.70;12.43;;;;;;;;;;5046185;28;20492;-63
2023/05/31 01:37:58;;;;;;;23.63;13.57;;;;;;;;;;5060747;28;20082;-63
2023/05/31 01:40:25;;;;;;;23.80;12.82;;;;;;;;;;5053683;28;20033;-62
2023/05/31 01:42:51;;;;;;;24.58;13.88;;;;;;;;;;5054164;28;20028;-62
2023/05/31 01:45:18;;;;;;;26.70;13.73;;;;;;;;;;5052947;28;20468;-62
2023/05/31 01:47:45;;;;;;;23.23;13.80;;;;;;;;;;5035549;28;20031;-62
2023/05/31 01:50:13;;;;;;;24.77;13.43;;;;;;;;;;5053559;28;20048;-63
2023/05/31 01:52:39;;;;;;;22.60;12.65;;;;;;;;;;5063714;28;20493;-61
2023/05/31 01:55:05;;;;;;;25.95;12.60;;;;;;;;;;5072694;28;20527;-62
2023/05/31 01:57:33;;;;;;;21.80;12.02;;;;;;;;;;5073445;28;20507;-63
2023/05/31 02:00:00;;;;;;;25.17;13.43;;;;;;;;;;5073619;28;20396;-59
2023/05/31 02:02:28;;;;;;;22.35;13.20;;;;;;;;;;5073522;28;20115;-61
2023/05/31 02:05:11;;;;;;;25.00;14.20;;;;;;;;;;5072492;28;20021;-61
2023/05/31 02:07:37;;;;;;;24.75;13.20;;;;;;;;;;5073580;28;20496;-62
2023/05/31 02:10:04;;;;;;;25.63;13.40;;;;;;;;;;5073532;28;20021;-62
2023/05/31 02:12:30;;;;;;;22.45;13.38;;;;;;;;;;5055613;28;20024;-63
2023/05/31 02:14:56;;;;;;;23.58;13.25;;;;;;;;;;5072702;28;20024;-62
2023/05/31 02:17:23;;;;;;;23.75;13.60;;;;;;;;;;5073943;28;20017;-61
2023/05/31 02:19:51;;;;;;;23.10;13.75;;;;;;;;;;5073793;28;20027;-61
2023/05/31 02:22:17;;;;;;;25.02;13.88;;;;;;;;;;5073360;28;20476;-61
2023/05/31 02:24:43;;;;;;;23.55;14.68;;;;;;;;;;5072823;28;20109;-62
2023/05/31 02:27:10;;;;;;;23.77;13.68;;;;;;;;;;5073600;28;20021;-63
2023/05/31 02:29:36;;;;;;;27.45;14.23;;;;;;;;;;5073116;28;20025;-62
2023/05/31 02:32:02;;;;;;;31.65;15.05;;;;;;;;;;5073247;28;20017;-61
2023/05/31 02:34:28;;;;;;;24.20;14.10;;;;;;;;;;5072180;28;20393;-62
2023/05/31 02:36:54;;;;;;;25.73;13.45;;;;;;;;;;5073015;28;20028;-62
2023/05/31 02:39:20;;;;;;;26.80;14.55;;;;;;;;;;5054962;28;20040;-62
2023/05/31 02:41:46;;;;;;;24.10;14.20;;;;;;;;;;5073056;28;20040;-63
2023/05/31 02:44:13;;;;;;;25.70;14.20;;;;;;;;;;5071501;28;20025;-62
2023/05/31 02:46:39;;;;;;;26.70;14.18;;;;;;;;;;5072110;28;20029;-62
2023/05/31 02:49:06;;;;;;;24.30;14.23;;;;;;;;;;5073070;28;20180;-61
2023/05/31 02:51:32;;;;;;;23.80;13.18;;;;;;;;;;5072902;28;20119;-62
2023/05/31 02:53:58;;;;;;;24.92;14.00;;;;;;;;;;5054285;28;20174;-62
2023/05/31 02:56:24;;;;;;;24.23;15.35;;;;;;;;;;5072478;28;20060;-60
2023/05/31 02:58:50;;;;;;;23.42;14.13;;;;;;;;;;5073123;28;20025;-61
2023/05/31 03:01:16;;;;;;;27.58;16.58;;;;;;;;;;5072729;28;20028;-62
2023/05/31 03:03:42;;;;;;;28.15;17.77;;;;;;;;;;5072752;28;20506;-62
2023/05/31 03:06:08;;;;;;;29.48;17.48;;;;;;;;;;5071877;28;20020;-62
2023/05/31 03:08:34;;;;;;;28.08;17.67;;;;;;;;;;5072528;28;20415;-60
2023/05/31 03:11:00;;;;;;;29.45;17.30;;;;;;;;;;5072434;28;20021;-62
2023/05/31 03:13:26;;;;;;;26.25;15.55;;;;;;;;;;5072538;28;20085;-62
2023/05/31 03:15:52;;;;;;;31.27;15.45;;;;;;;;;;5053629;28;20028;-61
2023/05/31 03:18:18;;;;;;;24.80;15.57;;;;;;;;;;5072264;28;20427;-61
2023/05/31 03:20:44;;;;;;;26.30;14.77;;;;;;;;;;5072168;28;20032;-62
2023/05/31 03:23:10;;;;;;;25.23;15.30;;;;;;;;;;5071895;28;20067;-61
2023/05/31 03:25:36;;;;;;;27.08;14.93;;;;;;;;;;5071097;28;20040;-62
2023/05/31 03:28:03;;;;;;;27.48;15.63;;;;;;;;;;5053525;28;20024;-60
2023/05/31 03:30:29;;;;;;;24.55;14.35;;;;;;;;;;5053820;28;20055;-61
2023/05/31 03:32:55;;;;;;;26.30;15.30;;;;;;;;;;5071849;28;20437;-62
2023/05/31 03:35:21;;;;;;;28.13;17.10;;;;;;;;;;5052978;28;20060;-61
2023/05/31 03:37:47;;;;;;;26.60;14.75;;;;;;;;;;5071340;28;20080;-61
2023/05/31 03:40:13;;;;;;;28.20;16.05;;;;;;;;;;5053505;28;20024;-61
2023/05/31 03:42:40;;;;;;;27.20;14.63;;;;;;;;;;5053333;28;20447;-62
2023/05/31 03:45:06;;;;;;;38.65;15.13;;;;;;;;;;5052941;28;20408;-62
2023/05/31 03:47:32;;;;;;;26.52;14.68;;;;;;;;;;5071782;28;20017;-62
2023/05/31 03:49:58;;;;;;;29.25;15.75;;;;;;;;;;5071503;28;20136;-61
2023/05/31 03:52:24;;;;;;;29.23;15.05;;;;;;;;;;5071603;28;20550;-63
2023/05/31 03:54:50;;;;;;;26.42;14.90;;;;;;;;;;5053128;28;20102;-64
2023/05/31 03:57:16;;;;;;;27.83;15.93;;;;;;;;;;5071553;28;20119;-62
2023/05/31 03:59:42;;;;;;;28.15;14.23;;;;;;;;;;5053439;28;20488;-62
2023/05/31 04:02:08;;;;;;;25.13;14.82;;;;;;;;;;5071288;28;20035;-62
2023/05/31 04:04:34;;;;;;;29.77;15.27;;;;;;;;;;5070424;28;20048;-61
2023/05/31 04:07:00;;;;;;;27.85;14.85;;;;;;;;;;5071308;28;20027;-62
2023/05/31 04:09:26;;;;;;;26.85;15.15;;;;;;;;;;5071395;28;20033;-62
2023/05/31 04:11:52;;;;;;;29.67;14.85;;;;;;;;;;5054043;28;20017;-62
2023/05/31 04:14:18;;;;;;;27.92;16.40;;;;;;;;;;5059038;28;20392;-61
2023/05/31 04:16:44;;;;;;;25.02;14.88;;;;;;;;;;5061491;28;20037;-63
2023/05/31 04:19:10;;;;;;;28.08;14.88;;;;;;;;;;5070921;28;20028;-62
2023/05/31 04:21:36;;;;;;;28.33;15.43;;;;;;;;;;5071123;28;20029;-63
2023/05/31 04:24:02;;;;;;;31.08;15.02;;;;;;;;;;5070264;28;20028;-62
2023/05/31 04:26:29;;;;;;;26.73;15.05;;;;;;;;;;5070759;28;20103;-62
2023/05/31 04:28:55;;;;;;;27.40;15.52;;;;;;;;;;5070924;28;20104;-65
2023/05/31 04:31:24;;;;;;;25.70;15.35;;;;;;;;;;5070880;28;20059;-63
2023/05/31 04:33:53;;;;;;;28.42;15.60;;;;;;;;;;5070658;28;20107;-62
2023/05/31 04:36:19;;;;;;;26.17;14.95;;;;;;;;;;5058248;28;20049;-62
2023/05/31 04:38:45;;;;;;;31.13;16.15;;;;;;;;;;5069925;28;20504;-62
2023/05/31 04:41:11;;;;;;;26.60;14.98;;;;;;;;;;5070903;28;20036;-63
2023/05/31 04:43:39;;;;;;;30.38;16.60;;;;;;;;;;5070541;28;20035;-63
2023/05/31 04:46:05;;;;;;;28.17;14.93;;;;;;;;;;5069938;28;20029;-62
2023/05/31 04:48:32;;;;;;;28.88;16.45;;;;;;;;;;5070587;28;20036;-61
2023/05/31 04:50:58;;;;;;;30.55;17.23;;;;;;;;;;5070939;28;20025;-63
2023/05/31 04:53:24;;;;;;;31.33;16.88;;;;;;;;;;5071040;28;20028;-63
2023/05/31 04:55:51;;;;;;;29.67;15.52;;;;;;;;;;5051884;28;20108;-63
2023/05/31 04:58:19;;;;;;;29.80;16.17;;;;;;;;;;5070757;28;20027;-63
2023/05/31 05:00:45;;;;;;;29.85;15.77;;;;;;;;;;5070873;28;20028;-63
2023/05/31 05:03:11;;;;;;;25.80;15.73;;;;;;;;;;5052799;28;20024;-61
2023/05/31 05:05:37;;;;;;;26.60;16.00;;;;;;;;;;5069356;28;20043;-64
2023/05/31 05:08:03;;;;;;;25.70;16.02;;;;;;;;;;5071182;28;20025;-62
2023/05/31 05:10:29;;;;;;;27.00;16.13;;;;;;;;;;5074446;28;20148;-59
2023/05/31 05:12:55;;;;;;;28.00;16.45;;;;;;;;;;5056327;28;20059;-63
2023/05/31 05:15:21;;;;;;;31.10;17.83;;;;;;;;;;5073707;28;20025;-57
2023/05/31 05:17:47;;;;;;;29.02;16.92;;;;;;;;;;5074105;28;20040;-63
2023/05/31 05:20:13;;;;;;;26.25;16.10;;;;;;;;;;5074067;28;20077;-63
2023/05/31 05:22:42;;;;;;;27.27;15.98;;;;;;;;;;5070577;28;20021;-65
2023/05/31 05:25:09;;;;;;;28.13;16.27;;;;;;;;;;5059509;28;20079;-63
2023/05/31 05:27:35;;;;;;;29.98;17.25;;;;;;;;;;5055754;28;20032;-63
2023/05/31 05:30:01;;;;;;;30.15;17.25;;;;;;;;;;5035513;28;20166;-63
2023/05/31 05:32:27;;;;;;;26.55;15.52;;;;;;;;;;5053192;28;20048;-62
2023/05/31 05:34:53;;;;;;;28.00;15.18;;;;;;;;;;5052215;28;20466;-59
2023/05/31 05:37:19;;;;;;;24.67;14.13;;;;;;;;;;5035304;28;20021;-61
2023/05/31 05:39:45;;;;;;;27.92;16.13;;;;;;;;;;5051318;28;20079;-62
2023/05/31 05:42:11;;;;;;;27.42;16.95;;;;;;;;;;5052808;28;20025;-62
2023/05/31 05:44:37;;;;;;;32.20;20.35;;;;;;;;;;5052209;28;20021;-62
2023/05/31 05:47:04;;;;;;;29.27;16.00;;;;;;;;;;5052755;28;20100;-61
2023/05/31 05:49:29;;;;;;;35.88;24.27;;;;;;;;;;5052532;28;20485;-63
2023/05/31 05:51:55;;;;;;;26.30;14.95;;;;;;;;;;5052593;28;20035;-63
2023/05/31 05:54:21;;;;;;;27.73;16.80;;;;;;;;;;5051480;28;20444;-63
2023/05/31 05:56:47;;;;;;;27.75;15.43;;;;;;;;;;5052254;28;20390;-63
2023/05/31 05:59:14;;;;;;;29.42;16.10;;;;;;;;;;5034622;28;20057;-62
2023/05/31 06:01:40;;;;;;;25.02;14.13;;;;;;;;;;5052565;28;20024;-64
2023/05/31 06:04:06;;;;;;;27.05;13.60;;;;;;;;;;5051906;28;20082;-62
2023/05/31 06:06:32;;;;;;;23.75;13.65;;;;;;;;;;5052379;28;20111;-63
2023/05/31 06:08:58;;;;;;;26.27;14.77;;;;;;;;;;5053208;28;20164;-63
2023/05/31 06:11:25;;;;;;;22.80;13.40;;;;;;;;;;5058620;28;20090;-62
2023/05/31 06:13:56;;;;;;;27.13;14.13;;;;;;;;;;5039213;28;20480;-63
2023/05/31 06:16:22;;;;;;;26.83;15.23;;;;;;;;;;5073094;28;20039;-61
2023/05/31 06:18:48;;;;;;;25.52;13.25;;;;;;;;;;5055081;28;20092;-61
2023/05/31 06:21:14;;;;;;;24.98;13.60;;;;;;;;;;5068357;28;20029;-62
2023/05/31 06:23:40;;;;;;;24.67;12.95;;;;;;;;;;5063648;28;20560;-63
2023/05/31 06:26:06;;;;;;;24.10;14.15;;;;;;;;;;5054539;28;20064;-62
2023/05/31 06:28:32;;;;;;;25.95;14.57;;;;;;;;;;5055087;28;20522;-63
2023/05/31 06:31:00;;;;;;;22.85;13.73;;;;;;;;;;5073489;28;20602;-58
2023/05/31 06:33:26;;;;;;;26.10;14.93;;;;;;;;;;5072197;28;20013;-52
2023/05/31 06:35:52;;;;;;;26.52;14.07;;;;;;;;;;5072146;28;20047;-48
2023/05/31 06:38:20;;;;;;;23.17;13.68;;;;;;;;;;5066810;28;20452;-52
2023/05/31 06:40:46;;;;;;;23.20;13.60;;;;;;;;;;5062609;28;20036;-50
2023/05/31 06:43:12;;;;;;;26.63;15.48;;;;;;;;;;5069903;28;20037;-52
2023/05/31 06:45:41;;;;;;;26.23;14.00;;;;;;;;;;5032518;28;20029;-54
2023/05/31 06:48:08;;;;;;;26.15;14.95;;;;;;;;;;5051539;28;20024;-52
2023/05/31 06:50:34;;;;;;;24.10;14.38;;;;;;;;;;5051494;28;20036;-52
2023/05/31 06:53:00;;;;;;;22.33;13.75;;;;;;;;;;5051612;28;20409;-51
2023/05/31 06:55:26;;;;;;;21.90;13.38;;;;;;;;;;5050539;28;20025;-56
2023/05/31 06:57:52;;;;;;;29.83;15.05;;;;;;;;;;5050713;28;20028;-50
2023/05/31 07:00:19;;;;;;;22.50;13.20;;;;;;;;;;5033332;28;20085;-52
2023/05/31 07:02:45;;;;;;;23.67;14.57;;;;;;;;;;5051536;28;20032;-52
2023/05/31 07:05:11;;;;;;;23.98;13.93;;;;;;;;;;5050520;28;20044;-51
2023/05/31 07:07:37;;;;;;;21.13;13.30;;;;;;;;;;5050938;28;20461;-51
2023/05/31 07:10:03;;;;;;;23.77;13.50;;;;;;;;;;5051055;28;20057;-53
2023/05/31 07:12:29;;;;;;;25.92;14.88;;;;;;;;;;5052959;28;20107;-54
2023/05/31 07:14:55;;;;;;;23.63;12.88;;;;;;;;;;5070625;28;20023;-51
2023/05/31 07:17:21;;;;;;;23.70;13.32;;;;;;;;;;5071528;28;20108;-55
2023/05/31 07:19:48;;;;;;;24.58;13.52;;;;;;;;;;5053697;28;20055;-51
2023/05/31 07:22:15;;;;;;;27.35;14.25;;;;;;;;;;5051969;28;20151;-53
2023/05/31 07:24:41;;;;;;;27.58;14.45;;;;;;;;;;5061057;28;20074;-53
2023/05/31 07:27:07;;;;;;;22.85;13.10;;;;;;;;;;5059046;28;20040;-51
2023/05/31 07:29:33;;;;;;;21.30;13.18;;;;;;;;;;5053154;28;20032;-54
2023/05/31 07:31:59;;;;;;;23.40;13.68;;;;;;;;;;5050440;28;20025;-52
2023/05/31 07:34:26;;;;;;;22.02;13.63;;;;;;;;;;5049929;28;20128;-52
2023/05/31 07:36:51;;;;;;;24.75;14.82;;;;;;;;;;5051093;28;20079;-52
2023/05/31 07:39:18;;;;;;;22.98;13.82;;;;;;;;;;5050826;28;20473;-55
2023/05/31 07:41:44;;;;;;;23.05;13.65;;;;;;;;;;5050974;28;20028;-52
2023/05/31 07:44:11;;;;;;;21.88;13.05;;;;;;;;;;5050195;28;20029;-52
2023/05/31 07:46:37;;;;;;;21.70;13.18;;;;;;;;;;5050399;28;20033;-50
2023/05/31 07:49:03;;;;;;;24.15;14.13;;;;;;;;;;5050428;28;20079;-53
2023/05/31 07:51:30;;;;;;;20.40;13.05;;;;;;;;;;5050591;28;20033;-54
2023/05/31 07:53:56;;;;;;;22.75;13.30;;;;;;;;;;5049976;28;20052;-55
2023/05/31 07:56:22;;;;;;;26.13;15.55;;;;;;;;;;5050240;28;20089;-55
2023/05/31 07:58:48;;;;;;;23.13;14.25;;;;;;;;;;5050244;28;20028;-52
2023/05/31 08:01:14;;;;;;;27.05;14.38;;;;;;;;;;5050375;28;20032;-54
2023/05/31 08:03:41;;;;;;;21.73;13.57;;;;;;;;;;5032172;28;20029;-58
2023/05/31 08:06:08;;;;;;;24.88;13.85;;;;;;;;;;5048842;28;20427;-60
2023/05/31 08:08:34;;;;;;;21.83;12.52;;;;;;;;;;5047292;28;20025;-58
2023/05/31 08:11:00;;;;;;;22.65;12.38;;;;;;;;;;5049499;28;20017;-60
2023/05/31 08:13:29;;;;;;;21.20;12.83;;;;;;;;;;5049791;28;20055;-62
2023/05/31 08:15:55;;;;;;;22.10;13.43;;;;;;;;;;5049162;28;20409;-57
2023/05/31 08:18:21;;;;;;;17.98;12.10;;;;;;;;;;5048414;28;20029;-60
2023/05/31 08:20:47;;;;;;;23.17;12.82;;;;;;;;;;5049788;28;20487;-58
2023/05/31 08:23:22;;;;;;;20.13;12.88;;;;;;;;;;5050218;28;20037;-62
2023/05/31 08:25:50;;;;;;;22.45;12.60;;;;;;;;;;5049433;28;20033;-60
2023/05/31 08:28:16;;;;;;;23.70;13.80;;;;;;;;;;5050185;28;20116;-60
2023/05/31 08:30:42;;;;;;;31.17;13.95;;;;;;;;;;5050020;28;20021;-58
2023/05/31 08:33:08;;;;;;;21.42;13.30;;;;;;;;;;5050033;28;20342;-62
2023/05/31 08:35:34;;;;;;;23.75;13.05;;;;;;;;;;5049291;28;20025;-60
2023/05/31 08:38:00;;;;;;;20.83;12.45;;;;;;;;;;5049990;28;20028;-61
2023/05/31 08:40:26;;;;;;;21.92;13.23;;;;;;;;;;5050040;28;20108;-59
2023/05/31 08:42:56;;;;;;;26.40;13.35;;;;;;;;;;5049087;28;20035;-62
2023/05/31 08:45:22;;;;;;;24.08;13.52;;;;;;;;;;5049193;28;20029;-62
2023/05/31 08:48:12;;;;;;;23.70;13.93;;;;;;;;;;5032068;28;20032;-61
2023/05/31 08:50:38;;;;;;;28.00;14.60;;;;;;;;;;5021740;28;20556;-59
2023/05/31 08:53:05;;;;;;;21.13;12.48;;;;;;;;;;5031977;28;20050;-63
2023/05/31 08:55:31;;;;;;;20.63;12.88;;;;;;;;;;5049075;28;20103;-60
2023/05/31 08:57:58;;;;;;;21.27;13.80;;;;;;;;;;5049889;28;20088;-57
2023/05/31 09:00:24;;;;;;;21.83;14.77;;;;;;;;;;5032000;28;20160;-57
2023/05/31 09:02:51;;;;;;;20.50;13.18;;;;;;;;;;5049642;28;20029;-59
2023/05/31 09:05:18;;;;;;;20.25;12.43;;;;;;;;;;5048730;28;20036;-60
2023/05/31 09:07:44;;;;;;;20.73;12.65;;;;;;;;;;5049563;28;20032;-59
2023/05/31 09:10:13;;;;;;;23.15;14.20;;;;;;;;;;5031678;28;20033;-59
2023/05/31 09:12:39;;;;;;;19.17;13.07;;;;;;;;;;5049873;28;20388;-58
2023/05/31 09:15:06;;;;;;;19.95;13.40;;;;;;;;;;5030762;28;20025;-60
2023/05/31 09:17:32;;;;;;;20.85;12.77;;;;;;;;;;5049517;28;20013;-58
2023/05/31 09:20:00;;;;;;;19.42;13.02;;;;;;;;;;5048752;28;20028;-58
2023/05/31 09:22:26;;;;;;;24.75;14.00;;;;;;;;;;5049549;28;20136;-61
2023/05/31 09:24:55;;;;;;;22.02;13.68;;;;;;;;;;5048488;28;20017;-60
2023/05/31 09:27:21;;;;;;;21.17;12.88;;;;;;;;;;5049492;28;20096;-60
2023/05/31 09:29:52;;;;;;;19.70;13.98;;;;;;;;;;5049497;28;20552;-58
2023/05/31 09:32:18;;;;;;;18.90;12.90;;;;;;;;;;5049154;28;20049;-59
2023/05/31 09:34:44;;;;;;;20.75;13.23;;;;;;;;;;5054329;28;20084;-60
2023/05/31 09:37:23;;;;;;;18.98;11.45;;;;;;;;;;5055022;28;20077;-61
2023/05/31 09:39:56;;;;;;;21.05;12.25;;;;;;;;;;5060339;28;20070;-61
2023/05/31 09:42:22;;;;;;;18.35;12.10;;;;;;;;;;5055498;28;20104;-55
2023/05/31 09:44:48;;;;;;;21.63;13.57;;;;;;;;;;5056965;28;20032;-59
2023/05/31 09:47:15;;;;;;;19.00;13.05;;;;;;;;;;5064901;28;20127;-59
2023/05/31 09:49:43;;;;;;;20.25;13.07;;;;;;;;;;5045114;28;20028;-57
2023/05/31 09:52:13;;;;;;;19.88;13.23;;;;;;;;;;5057443;28;20424;-58
2023/05/31 09:54:39;;;;;;;19.50;12.50;;;;;;;;;;5056584;28;20021;-60
2023/05/31 09:57:05;;;;;;;21.55;13.55;;;;;;;;;;5042351;28;20501;-60
2023/05/31 09:59:34;;;;;;;19.60;14.32;;;;;;;;;;5060153;28;20358;-59
2023/05/31 10:02:01;;;;;;;23.00;14.38;;;;;;;;;;5064669;28;20044;-57
2023/05/31 10:04:29;;;;;;;21.35;13.07;;;;;;;;;;5052561;28;20629;-54
2023/05/31 10:06:55;;;;;;;17.50;12.67;;;;;;;;;;5050383;28;20939;-59
2023/05/31 10:09:21;;;;;;;23.98;13.88;;;;;;;;;;5052045;28;20112;-58
2023/05/31 10:11:50;;;;;;;19.13;13.38;;;;;;;;;;5052393;28;20090;-61
2023/05/31 10:14:25;;;;;;;21.10;13.20;;;;;;;;;;5051735;28;20017;-62
2023/05/31 10:16:54;;;;;;;19.55;13.10;;;;;;;;;;5050591;28;20035;-60
2023/05/31 10:19:23;;;;;;;21.33;12.65;;;;;;;;;;5033821;28;20396;-59
2023/05/31 10:21:50;;;;;;;20.80;13.70;;;;;;;;;;5049465;28;20045;-60
2023/05/31 10:24:32;;;;;;;20.60;13.70;;;;;;;;;;5051176;28;20098;-63
2023/05/31 10:27:08;;;;;;;20.33;13.77;;;;;;;;;;5050771;28;20025;-58
2023/05/31 10:29:43;;;;;;;21.58;13.30;;;;;;;;;;5047297;28;20538;-61
2023/05/31 10:32:11;;;;;;;19.13;12.98;;;;;;;;;;5049294;28;20028;-63
2023/05/31 10:34:37;;;;;;;21.20;14.02;;;;;;;;;;5052198;28;20025;-58
2023/05/31 10:37:05;;;;;;;18.67;13.77;;;;;;;;;;5052605;28;20477;-62
2023/05/31 10:39:34;;;;;;;17.15;13.18;;;;;;;;;;5034040;28;20392;-62
2023/05/31 10:42:03;;;;;;;18.20;13.18;;;;;;;;;;5050707;28;20032;-61
2023/05/31 10:44:34;;;;;;;19.52;13.50;;;;;;;;;;5062946;28;20072;-62
2023/05/31 10:47:02;;;;;;;19.77;14.60;;;;;;;;;;5065142;28;20021;-62
2023/05/31 10:49:30;;;;;;;19.38;13.63;;;;;;;;;;5054263;28;20547;-60
2023/05/31 10:52:03;;;;;;;18.60;13.13;;;;;;;;;;5068905;28;20424;-60
2023/05/31 10:54:32;;;;;;;19.67;14.10;;;;;;;;;;5052159;28;20021;-62
2023/05/31 10:56:58;;;;;;;19.35;13.73;;;;;;;;;;5035008;28;20393;-59
2023/05/31 10:59:26;;;;;;;19.92;14.32;;;;;;;;;;5048042;28;20105;-59
2023/05/31 11:01:52;;;;;;;18.40;13.88;;;;;;;;;;5055277;28;20065;-63
2023/05/31 11:04:23;;;;;;;20.63;13.77;;;;;;;;;;5055981;28;20040;-63
2023/05/31 11:06:52;;;;;;;19.23;14.23;;;;;;;;;;5040590;28;20388;-63
2023/05/31 11:09:18;;;;;;;18.13;13.63;;;;;;;;;;5037408;28;20108;-61
2023/05/31 11:11:46;;;;;;;17.55;13.65;;;;;;;;;;5051003;28;20112;-62
2023/05/31 11:14:28;;;;;;;18.70;14.07;;;;;;;;;;5050389;28;20116;-63
2023/05/31 11:17:03;;;;;;;20.73;14.25;;;;;;;;;;5051428;28;20070;-61
2023/05/31 11:19:29;;;;;;;19.50;13.88;;;;;;;;;;5051386;28;20033;-63
2023/05/31 11:21:56;;;;;;;19.30;13.95;;;;;;;;;;5051551;28;20070;-58
2023/05/31 11:24:29;;;;;;;23.15;14.75;;;;;;;;;;5050334;28;20055;-63
2023/05/31 11:26:57;;;;;;;22.85;15.10;;;;;;;;;;5033586;28;20029;-62
2023/05/31 11:29:23;;;;;;;20.25;14.70;;;;;;;;;;5051469;28;20163;-63
2023/05/31 11:31:55;;;;;;;20.95;14.75;;;;;;;;;;5051571;28;20036;-62
2023/05/31 11:34:26;;;;;;;22.85;15.13;;;;;;;;;;5032266;28;20017;-62
2023/05/31 11:36:52;;;;;;;17.70;14.35;;;;;;;;;;5050523;28;20110;-63
2023/05/31 11:39:18;;;;;;;19.27;14.73;;;;;;;;;;5050856;28;20059;-60
2023/05/31 11:41:44;;;;;;;19.80;15.30;;;;;;;;;;5050684;28;20055;-63
2023/05/31 11:44:15;;;;;;;20.55;15.48;;;;;;;;;;5049952;28;20056;-62
2023/05/31 11:46:45;;;;;;;18.83;14.95;;;;;;;;;;5050499;28;20040;-63
2023/05/31 11:49:11;;;;;;;20.88;14.90;;;;;;;;;;5050051;28;20470;-61
2023/05/31 11:51:41;;;;;;;19.33;14.25;;;;;;;;;;5050063;28;20021;-63
2023/05/31 11:54:08;;;;;;;18.10;14.60;;;;;;;;;;5049520;28;20039;-62
2023/05/31 11:56:36;;;;;;;16.65;14.02;;;;;;;;;;5031558;28;20086;-63
2023/05/31 11:59:02;;;;;;;;;;;;;;;;;;5050222;28;20086;-61
2023/05/31 12:01:28;;;;;;;20.05;15.15;;;;;;;;;;5052500;28;19991;-62
2023/05/31 12:04:00;;;;;;;16.70;14.20;;;;;;;;;;5049585;28;20048;-61
2023/05/31 12:06:28;;;;;;;19.65;14.70;;;;;;;;;;5049470;28;20032;-62
2023/05/31 12:08:54;;;;;;;19.20;14.18;;;;;;;;;;5031695;28;20541;-63
2023/05/31 12:11:21;;;;;;;19.40;14.23;;;;;;;;;;5049970;28;20017;-63
2023/05/31 12:13:47;;;;;;;18.33;14.32;;;;;;;;;;5049392;28;20484;-63
2023/05/31 12:16:13;;;;;;;19.02;13.88;;;;;;;;;;5049694;28;20025;-63
2023/05/31 12:18:39;;;;;;;18.83;15.23;;;;;;;;;;5050323;28;20369;-64
2023/05/31 12:21:09;;;;;;;17.27;14.52;;;;;;;;;;5050094;28;20021;-64
2023/05/31 12:23:54;;;;;;;18.63;15.40;;;;;;;;;;5050108;28;20021;-63
2023/05/31 12:26:21;;;;;;;18.67;14.35;;;;;;;;;;5049613;28;20052;-63
2023/05/31 12:28:47;;;;;;;19.93;14.73;;;;;;;;;;5032188;28;20500;-62
2023/05/31 12:31:23;;;;;;;20.13;14.48;;;;;;;;;;5049997;28;20138;-62
2023/05/31 12:34:08;;;;;;;19.40;14.60;;;;;;;;;;5050019;28;20059;-63
2023/05/31 12:36:41;;;;;;;20.92;14.85;;;;;;;;;;5068993;23;20112;-57
2023/05/31 12:39:09;;;;;;;20.00;14.60;;;;;;;;;;5051110;28;20025;-58
2023/05/31 12:41:35;;;;;;;21.45;14.25;;;;;;;;;;5050957;28;20126;-60
2023/05/31 12:44:01;;;;;;;19.75;14.38;;;;;;;;;;5049261;28;20021;-61
2023/05/31 12:46:27;;;;;;;20.85;14.52;;;;;;;;;;5049895;28;20029;-55
2023/05/31 12:48:53;;;;;;;19.83;14.57;;;;;;;;;;5050919;28;20037;-59
2023/05/31 12:51:22;;;;;;;19.00;14.10;;;;;;;;;;5050433;28;20021;-61
2023/05/31 12:53:49;;;;;;;18.48;14.30;;;;;;;;;;5050591;28;20098;-62
2023/05/31 12:56:15;;;;;;;17.90;14.57;;;;;;;;;;5050084;28;20090;-60
2023/05/31 12:58:42;;;;;;;19.77;14.35;;;;;;;;;;5051077;28;20025;-60
2023/05/31 13:01:08;;;;;;;19.48;14.82;;;;;;;;;;5050821;28;20029;-58
2023/05/31 13:03:34;;;;;;;18.33;13.95;;;;;;;;;;5051396;28;20507;-62
2023/05/31 13:06:00;;;;;;;19.30;14.13;;;;;;;;;;5051858;28;20056;-62
2023/05/31 13:08:26;;;;;;;18.50;14.00;;;;;;;;;;5050420;28;20021;-60
2023/05/31 13:10:53;;;;;;;20.88;14.50;;;;;;;;;;5050394;28;20032;-62
2023/05/31 13:13:19;;;;;;;19.60;14.18;;;;;;;;;;5053257;28;20071;-61
2023/05/31 13:15:46;;;;;;;19.13;13.98;;;;;;;;;;5045664;28;20071;-61
2023/05/31 13:18:12;;;;;;;18.10;13.65;;;;;;;;;;5050702;28;20071;-60
2023/05/31 13:20:38;;;;;;;21.35;14.35;;;;;;;;;;5050512;28;20384;-62
2023/05/31 13:23:06;;;;;;;19.15;14.80;;;;;;;;;;5050637;28;20021;-62
2023/05/31 13:25:32;;;;;;;18.77;14.65;;;;;;;;;;5049615;28;20036;-62
2023/05/31 13:27:58;;;;;;;20.90;14.77;;;;;;;;;;5050565;28;20025;-63
2023/05/31 13:30:24;;;;;;;18.08;14.80;;;;;;;;;;5053427;28;20370;-62
2023/05/31 13:32:50;;;;;;;18.25;15.07;;;;;;;;;;5049379;28;20036;-61
2023/05/31 13:35:16;;;;;;;18.02;14.50;;;;;;;;;;5049939;28;20104;-62
2023/05/31 13:37:42;;;;;;;18.65;14.80;;;;;;;;;;5064713;28;20029;-62
2023/05/31 13:40:08;;;;;;;19.13;14.35;;;;;;;;;;5074241;28;20120;-63
2023/05/31 13:42:34;;;;;;;18.15;14.52;;;;;;;;;;5072641;28;20047;-63
2023/05/31 13:45:00;;;;;;;18.35;14.63;;;;;;;;;;5073341;28;20497;-59
2023/05/31 13:47:26;;;;;;;18.98;14.57;;;;;;;;;;5074272;28;20115;-60
2023/05/31 13:49:52;;;;;;;20.67;15.05;;;;;;;;;;5073849;28;20025;-59
2023/05/31 13:52:18;;;;;;;18.40;14.27;;;;;;;;;;5074146;28;20029;-61
2023/05/31 13:54:44;;;;;;;21.02;14.60;;;;;;;;;;5073291;28;20101;-62
2023/05/31 13:57:10;;;;;;;18.65;14.73;;;;;;;;;;5074375;28;20048;-62
2023/05/31 13:59:37;;;;;;;18.73;14.52;;;;;;;;;;5073165;28;20523;-62
2023/05/31 14:02:03;;;;;;;20.52;14.73;;;;;;;;;;5074270;28;20388;-62
2023/05/31 14:04:29;;;;;;;19.10;15.40;;;;;;;;;;5073182;28;20032;-60
2023/05/31 14:06:55;;;;;;;19.92;15.60;;;;;;;;;;5072535;28;20077;-62
2023/05/31 14:09:21;;;;;;;18.65;15.00;;;;;;;;;;5072470;28;20020;-61
2023/05/31 14:11:47;;;;;;;18.40;15.32;;;;;;;;;;5072701;28;20104;-60
2023/05/31 14:14:13;;;;;;;19.25;15.30;;;;;;;;;;5073282;28;20025;-62
2023/05/31 14:16:39;;;;;;;17.90;15.27;;;;;;;;;;5073896;28;20025;-62
2023/05/31 14:19:05;;;;;;;17.50;15.18;;;;;;;;;;5073972;28;20099;-58